Terminal Aerodrome Forecast
Issued by NWS

Home | Current Version | Previous Version | Text Only | Print | Product List | Glossary On
Versions: 1 2 3 4 5 6 7 8 9 10 11 12 13 14
638
FTUS42 KMHX 070540
TAFPGV
TAF
KPGV 070540Z 0706/0806 02005KT P6SM OVC080
     FM071100 02012KT P6SM -RASN BKN045
     FM071530 01016G25KT P6SM -RA OVC040
     FM080100 35012G18KT P6SM BKN050
      AMD LTD TO CLD VIS AND WIND=

USA.gov is the U.S. government's official web portal to all federal, state and local government web resources and services.